Time;durP1;ratioP1;P1;durP2;ratioP2;P2;SDS_P1;SDS_P2;PMS_P1;PMS_P2;Temp;Humidity;BMP_temperature;BMP_pressure;BME280_temperature;BME280_humidity;BME280_pressure;Samples;Min_cycle;Max_cycle;Signal;HPM_P1;HPM_P2
2023/02/11 00:00:19;;;;;;;41.53;21.67;;;;;;;;;;5027607;28;20034;-78
2023/02/11 00:02:45;;;;;;;36.80;20.43;;;;;;;;;;5044646;28;20100;-75
2023/02/11 00:05:11;;;;;;;35.37;20.67;;;;;;;;;;5026698;28;20026;-75
2023/02/11 00:07:37;;;;;;;34.23;20.50;;;;;;;;;;5041820;28;20037;-75
2023/02/11 00:10:06;;;;;;;33.23;20.23;;;;;;;;;;5043277;28;21626;-78
2023/02/11 00:12:32;;;;;;;32.30;20.43;;;;;;;;;;5043321;28;20034;-77
2023/02/11 00:14:58;;;;;;;34.93;19.80;;;;;;;;;;5042728;28;20413;-77
2023/02/11 00:17:24;;;;;;;40.07;20.43;;;;;;;;;;5045389;28;20033;-78
2023/02/11 00:19:51;;;;;;;33.43;19.97;;;;;;;;;;5044036;28;20026;-77
2023/02/11 00:22:17;;;;;;;36.73;20.33;;;;;;;;;;5043747;28;20029;-78
2023/02/11 00:24:46;;;;;;;37.70;21.17;;;;;;;;;;5042599;28;20026;-78
2023/02/11 00:27:12;;;;;;;35.83;20.33;;;;;;;;;;5041412;28;20108;-79
2023/02/11 00:29:38;;;;;;;35.20;20.93;;;;;;;;;;5044073;28;20128;-78
2023/02/11 00:32:05;;;;;;;33.80;18.80;;;;;;;;;;5043452;28;20039;-78
2023/02/11 00:34:31;;;;;;;31.33;18.57;;;;;;;;;;5028084;28;20107;-78
2023/02/11 00:36:59;;;;;;;32.60;18.73;;;;;;;;;;5043426;28;20130;-76
2023/02/11 00:39:26;;;;;;;35.10;19.43;;;;;;;;;;5042952;28;20053;-78
2023/02/11 00:41:52;;;;;;;31.67;19.40;;;;;;;;;;5026174;28;20435;-79
2023/02/11 00:44:18;;;;;;;38.23;20.43;;;;;;;;;;5041708;28;20162;-76
2023/02/11 00:46:44;;;;;;;31.93;19.83;;;;;;;;;;5043742;28;20116;-78
2023/02/11 00:49:10;;;;;;;30.63;20.10;;;;;;;;;;5028426;28;21828;-79
2023/02/11 00:51:36;;;;;;;37.23;21.00;;;;;;;;;;5026750;28;20029;-78
2023/02/11 00:54:02;;;;;;;32.80;20.87;;;;;;;;;;5044352;28;20557;-79
2023/02/11 00:56:28;;;;;;;38.87;21.33;;;;;;;;;;5041784;28;20124;-78
2023/02/11 00:58:54;;;;;;;34.83;20.03;;;;;;;;;;5044599;28;20057;-77
2023/02/11 01:01:20;;;;;;;40.33;21.27;;;;;;;;;;5043686;28;20057;-78
2023/02/11 01:03:46;;;;;;;41.13;21.83;;;;;;;;;;5024147;28;20500;-76
2023/02/11 01:06:12;;;;;;;34.33;20.57;;;;;;;;;;5041510;28;20029;-79
2023/02/11 01:08:38;;;;;;;38.43;20.73;;;;;;;;;;5047035;28;20044;-79
2023/02/11 01:11:12;;;;;;;38.80;20.43;;;;;;;;;;5028190;28;20025;-78
2023/02/11 01:13:38;;;;;;;41.93;21.53;;;;;;;;;;5040833;28;20029;-78
2023/02/11 01:16:08;;;;;;;35.17;21.43;;;;;;;;;;5043565;28;20029;-77
2023/02/11 01:18:34;;;;;;;36.47;21.90;;;;;;;;;;5046467;28;20034;-78
2023/02/11 01:21:00;;;;;;;31.63;20.10;;;;;;;;;;5044680;28;20457;-77
2023/02/11 01:23:26;;;;;;;41.27;20.70;;;;;;;;;;5040865;28;20033;-78
2023/02/11 01:25:53;;;;;;;38.43;21.50;;;;;;;;;;5028803;28;20025;-78
2023/02/11 01:28:24;;;;;;;37.70;21.13;;;;;;;;;;5043537;28;20037;-76
2023/02/11 01:30:51;;;;;;;34.63;20.77;;;;;;;;;;5026924;28;20040;-79
2023/02/11 01:33:17;;;;;;;37.63;22.40;;;;;;;;;;5042514;28;20040;-78
2023/02/11 01:35:43;;;;;;;35.63;21.63;;;;;;;;;;5025149;28;20025;-78
2023/02/11 01:38:14;;;;;;;42.77;22.63;;;;;;;;;;5039411;28;20537;-78
2023/02/11 01:40:40;;;;;;;41.67;22.02;;;;;;;;;;5041357;28;20035;-78
2023/02/11 01:43:06;;;;;;;37.80;22.33;;;;;;;;;;5043093;28;21764;-78
2023/02/11 01:45:42;;;;;;;40.53;22.57;;;;;;;;;;5043939;28;20029;-79
2023/02/11 01:48:10;;;;;;;35.50;20.83;;;;;;;;;;5044131;28;20032;-78
2023/02/11 01:50:37;;;;;;;38.60;23.03;;;;;;;;;;5041548;28;20871;-78
2023/02/11 01:57:20;;;;;;;46.47;23.87;;;;;;;;;;5045483;28;20033;-79
2023/02/11 01:58:36;;;;;;;40.00;22.60;;;;;;;;;;5027592;28;20347;-78
2023/02/11 02:01:02;;;;;;;38.70;23.27;;;;;;;;;;5046028;28;20076;-76
2023/02/11 02:03:30;;;;;;;36.67;21.70;;;;;;;;;;5042864;28;20188;-78
2023/02/11 02:05:59;;;;;;;37.23;22.33;;;;;;;;;;5039807;28;20663;-78
2023/02/11 02:08:34;;;;;;;32.73;20.70;;;;;;;;;;5040715;28;20034;-78
2023/02/11 02:11:00;;;;;;;40.50;23.10;;;;;;;;;;5040954;28;20116;-78
2023/02/11 02:13:27;;;;;;;40.13;20.47;;;;;;;;;;5040494;28;20052;-77
2023/02/11 02:15:53;;;;;;;43.77;22.70;;;;;;;;;;5039782;28;20912;-78
2023/02/11 02:18:22;;;;;;;35.90;22.43;;;;;;;;;;5029227;28;20042;-78
2023/02/11 02:21:07;;;;;;;39.40;21.90;;;;;;;;;;5025718;28;20037;-77
2023/02/11 02:23:36;;;;;;;36.27;21.93;;;;;;;;;;5030191;28;20036;-78
2023/02/11 02:26:05;;;;;;;37.23;22.73;;;;;;;;;;5037851;28;20034;-78
2023/02/11 02:28:31;;;;;;;38.33;22.50;;;;;;;;;;5025708;28;20033;-78
2023/02/11 02:31:08;;;;;;;41.20;22.73;;;;;;;;;;5042737;28;20033;-78
2023/02/11 02:33:53;;;;;;;40.10;23.20;;;;;;;;;;5045557;28;20034;-77
2023/02/11 02:36:19;;;;;;;40.83;23.33;;;;;;;;;;5028146;28;20464;-77
2023/02/11 02:38:52;;;;;;;41.77;24.23;;;;;;;;;;5025587;28;20025;-79
2023/02/11 02:41:20;;;;;;;43.07;24.00;;;;;;;;;;5026476;28;20037;-79
2023/02/11 02:43:50;;;;;;;40.33;24.73;;;;;;;;;;5018338;28;20033;-79
2023/02/11 02:46:24;;;;;;;48.60;25.37;;;;;;;;;;5046321;28;20113;-79
2023/02/11 02:48:51;;;;;;;46.67;23.77;;;;;;;;;;5054859;28;20029;-78
2023/02/11 02:51:36;;;;;;;46.67;25.63;;;;;;;;;;5038547;28;20121;-78
2023/02/11 02:54:26;;;;;;;40.37;24.13;;;;;;;;;;5052302;28;20037;-79
2023/02/11 02:56:59;;;;;;;45.03;25.17;;;;;;;;;;5033994;28;20442;-78
2023/02/11 02:59:48;;;;;;;49.90;26.73;;;;;;;;;;5050422;28;20083;-78
2023/02/11 03:02:20;;;;;;;48.93;26.27;;;;;;;;;;5033309;28;20353;-79
2023/02/11 03:05:16;;;;;;;48.53;25.07;;;;;;;;;;5034031;28;20036;-78
2023/02/11 03:07:53;;;;;;;48.10;26.43;;;;;;;;;;5027150;28;20037;-77
2023/02/11 03:10:19;;;;;;;43.67;26.63;;;;;;;;;;5035922;28;20026;-79
2023/02/11 03:12:46;;;;;;;43.20;27.53;;;;;;;;;;5065936;28;20094;-79
2023/02/11 03:15:17;;;;;;;51.40;27.30;;;;;;;;;;5034992;28;20430;-77
2023/02/11 03:17:45;;;;;;;47.13;26.30;;;;;;;;;;5032349;28;20026;-78
2023/02/11 03:20:13;;;;;;;55.93;28.07;;;;;;;;;;5033287;28;20025;-79
2023/02/11 03:22:52;;;;;;;51.37;28.37;;;;;;;;;;5054115;28;20025;-79
2023/02/11 03:25:20;;;;;;;49.40;28.43;;;;;;;;;;5051939;28;20364;-79
2023/02/11 03:27:51;;;;;;;52.93;29.20;;;;;;;;;;5033893;28;20047;-79
2023/02/11 03:30:24;;;;;;;49.80;27.07;;;;;;;;;;5051756;28;20029;-78
2023/02/11 03:33:10;;;;;;;46.87;26.13;;;;;;;;;;5035439;28;20029;-78
2023/02/11 03:35:43;;;;;;;46.13;27.10;;;;;;;;;;5034581;28;20083;-78
2023/02/11 03:38:15;;;;;;;52.03;27.30;;;;;;;;;;5042778;28;20040;-77
2023/02/11 03:40:44;;;;;;;48.75;27.85;;;;;;;;;;5045417;28;20048;-78
2023/02/11 03:43:17;;;;;;;50.80;27.50;;;;;;;;;;5033801;28;20021;-79
2023/02/11 03:45:44;;;;;;;48.83;26.93;;;;;;;;;;5023094;28;20045;-78
2023/02/11 03:48:23;;;;;;;42.97;26.37;;;;;;;;;;5033267;28;20029;-79
2023/02/11 03:50:50;;;;;;;54.53;28.47;;;;;;;;;;5050449;28;20080;-78
2023/02/11 03:53:17;;;;;;;45.37;25.27;;;;;;;;;;5039097;28;20029;-78
2023/02/11 03:55:43;;;;;;;48.90;27.43;;;;;;;;;;5043005;28;20037;-78
2023/02/11 03:58:10;;;;;;;53.67;25.63;;;;;;;;;;5054580;28;20029;-78
2023/02/11 04:00:38;;;;;;;48.83;25.60;;;;;;;;;;5036858;28;20025;-78
2023/02/11 04:03:04;;;;;;;50.03;25.37;;;;;;;;;;5037196;28;20025;-78
2023/02/11 04:05:30;;;;;;;48.47;26.20;;;;;;;;;;5036969;28;20029;-78
2023/02/11 04:07:56;;;;;;;46.90;24.70;;;;;;;;;;5027574;28;20120;-78
2023/02/11 04:10:22;;;;;;;44.00;26.40;;;;;;;;;;5045899;28;20064;-78
2023/02/11 04:12:49;;;;;;;44.87;25.60;;;;;;;;;;5036565;28;20033;-78
2023/02/11 04:15:17;;;;;;;46.93;24.57;;;;;;;;;;5070122;28;20021;-78
2023/02/11 04:17:45;;;;;;;46.03;25.60;;;;;;;;;;5039501;28;20052;-76
2023/02/11 04:20:11;;;;;;;39.93;24.23;;;;;;;;;;5027486;28;20454;-79
2023/02/11 04:22:38;;;;;;;48.57;25.80;;;;;;;;;;5043567;28;20042;-77
2023/02/11 04:25:05;;;;;;;52.33;26.07;;;;;;;;;;5046074;28;20022;-78
2023/02/11 04:27:31;;;;;;;46.27;24.63;;;;;;;;;;5041743;28;20433;-77
2023/02/11 04:29:57;;;;;;;43.93;24.63;;;;;;;;;;5042476;28;20040;-77
2023/02/11 04:32:23;;;;;;;47.27;23.70;;;;;;;;;;5042211;28;20382;-78
2023/02/11 04:34:49;;;;;;;42.33;23.50;;;;;;;;;;5040927;28;20041;-77
2023/02/11 04:37:15;;;;;;;44.77;23.20;;;;;;;;;;5030166;28;20025;-78
2023/02/11 04:39:43;;;;;;;44.17;24.63;;;;;;;;;;5042479;28;20238;-78
2023/02/11 04:42:09;;;;;;;38.50;22.87;;;;;;;;;;5027083;28;20026;-77
2023/02/11 04:44:35;;;;;;;46.03;21.93;;;;;;;;;;5044733;28;20045;-78
2023/02/11 04:47:01;;;;;;;49.10;24.60;;;;;;;;;;5044454;28;20037;-76
2023/02/11 04:49:27;;;;;;;54.57;23.97;;;;;;;;;;5043857;28;20181;-78
2023/02/11 04:51:53;;;;;;;44.33;23.80;;;;;;;;;;5041300;28;20040;-77
2023/02/11 04:54:22;;;;;;;44.50;23.73;;;;;;;;;;5027946;28;20049;-77
2023/02/11 04:56:48;;;;;;;44.63;23.60;;;;;;;;;;5025517;28;20045;-78
2023/02/11 04:59:16;;;;;;;38.33;21.93;;;;;;;;;;5043951;28;20084;-77
2023/02/11 05:01:42;;;;;;;44.37;22.93;;;;;;;;;;5027583;28;20553;-80
2023/02/11 05:04:08;;;;;;;40.20;22.53;;;;;;;;;;5029017;28;20040;-76
2023/02/11 05:06:34;;;;;;;42.47;20.90;;;;;;;;;;5043760;28;20033;-78
2023/02/11 05:09:00;;;;;;;39.87;23.67;;;;;;;;;;5042414;28;20041;-78
2023/02/11 05:11:26;;;;;;;39.23;22.50;;;;;;;;;;5043928;28;20037;-77
2023/02/11 05:13:52;;;;;;;35.47;20.90;;;;;;;;;;5043582;28;20409;-78
2023/02/11 05:16:19;;;;;;;42.37;22.10;;;;;;;;;;5042847;28;20033;-78
2023/02/11 05:18:45;;;;;;;42.07;22.27;;;;;;;;;;5040077;28;20034;-77
2023/02/11 05:21:13;;;;;;;46.07;22.17;;;;;;;;;;5030018;28;20121;-77
2023/02/11 05:23:40;;;;;;;54.17;22.23;;;;;;;;;;5046271;28;20037;-78
2023/02/11 05:26:06;;;;;;;43.87;22.90;;;;;;;;;;5026678;28;20032;-77
2023/02/11 05:28:32;;;;;;;43.43;22.53;;;;;;;;;;5043523;28;20048;-76
2023/02/11 05:31:00;;;;;;;47.97;24.00;;;;;;;;;;5044823;28;20029;-78
2023/02/11 05:33:27;;;;;;;48.37;23.07;;;;;;;;;;5042181;28;20087;-78
2023/02/11 05:35:57;;;;;;;53.53;24.83;;;;;;;;;;5043891;28;20041;-78
2023/02/11 05:38:25;;;;;;;50.40;24.33;;;;;;;;;;5041028;28;20033;-76
2023/02/11 05:40:51;;;;;;;51.40;24.87;;;;;;;;;;5042594;28;20059;-76
2023/02/11 05:43:17;;;;;;;53.90;26.70;;;;;;;;;;5041428;28;20470;-77
2023/02/11 05:45:43;;;;;;;51.50;26.47;;;;;;;;;;5043974;28;20026;-77
2023/02/11 05:48:09;;;;;;;49.33;25.00;;;;;;;;;;5042323;28;20506;-77
2023/02/11 05:50:35;;;;;;;52.00;26.77;;;;;;;;;;5044228;28;20029;-78
2023/02/11 05:53:01;;;;;;;52.10;27.77;;;;;;;;;;5042060;28;20159;-79
2023/02/11 05:55:27;;;;;;;57.80;27.93;;;;;;;;;;5044719;28;20454;-78
2023/02/11 05:57:53;;;;;;;55.50;27.80;;;;;;;;;;5044476;28;20029;-78
2023/02/11 06:00:19;;;;;;;62.67;27.63;;;;;;;;;;5025207;28;20040;-78
2023/02/11 06:02:45;;;;;;;62.40;28.27;;;;;;;;;;5045846;28;20025;-77
2023/02/11 06:05:11;;;;;;;56.10;26.87;;;;;;;;;;5026898;28;21661;-78
2023/02/11 06:07:37;;;;;;;53.37;28.30;;;;;;;;;;5025973;28;20030;-77
2023/02/11 06:10:06;;;;;;;60.53;29.40;;;;;;;;;;5045001;28;20037;-78
2023/02/11 06:12:32;;;;;;;51.73;29.30;;;;;;;;;;5040202;28;20056;-76
2023/02/11 06:14:58;;;;;;;57.57;29.20;;;;;;;;;;5042970;28;20112;-78
2023/02/11 06:17:27;;;;;;;58.20;29.70;;;;;;;;;;5043567;28;20167;-77
2023/02/11 06:19:56;;;;;;;56.77;29.63;;;;;;;;;;5044624;28;20033;-77
2023/02/11 06:22:22;;;;;;;67.70;29.33;;;;;;;;;;5029465;28;20124;-77
2023/02/11 06:24:48;;;;;;;58.90;30.63;;;;;;;;;;5028011;28;20030;-77
2023/02/11 06:27:14;;;;;;;55.77;28.43;;;;;;;;;;5040500;28;20021;-78
2023/02/11 06:29:40;;;;;;;53.93;28.27;;;;;;;;;;5043743;28;20288;-78
2023/02/11 06:32:06;;;;;;;56.73;29.03;;;;;;;;;;5050257;28;20025;-77
2023/02/11 06:34:32;;;;;;;53.47;29.70;;;;;;;;;;5043982;28;20030;-78
2023/02/11 06:36:58;;;;;;;58.03;29.70;;;;;;;;;;5026993;28;20034;-77
2023/02/11 06:39:24;;;;;;;59.10;29.00;;;;;;;;;;5025528;28;20048;-75
2023/02/11 06:41:52;;;;;;;60.83;29.77;;;;;;;;;;5025744;28;20444;-78
2023/02/11 06:44:18;;;;;;;55.63;30.67;;;;;;;;;;5027743;28;20112;-78
2023/02/11 06:46:44;;;;;;;50.50;29.00;;;;;;;;;;5044610;28;20438;-78
2023/02/11 06:49:13;;;;;;;61.77;30.10;;;;;;;;;;5040321;28;20041;-77
2023/02/11 06:51:39;;;;;;;63.90;30.83;;;;;;;;;;5040643;28;20058;-78
2023/02/11 06:54:05;;;;;;;50.77;28.53;;;;;;;;;;5043267;28;20743;-78
2023/02/11 06:56:32;;;;;;;47.07;28.23;;;;;;;;;;5041084;28;20037;-77
2023/02/11 06:58:58;;;;;;;58.03;29.70;;;;;;;;;;5027778;28;20037;-79
2023/02/11 07:01:27;;;;;;;54.07;28.93;;;;;;;;;;5040989;28;21051;-78
2023/02/11 07:03:53;;;;;;;56.63;30.87;;;;;;;;;;5040835;28;20026;-78
2023/02/11 07:06:20;;;;;;;55.77;30.17;;;;;;;;;;5042987;28;20041;-78
2023/02/11 07:08:47;;;;;;;59.67;29.40;;;;;;;;;;5040966;28;20029;-77
2023/02/11 07:11:14;;;;;;;56.97;32.73;;;;;;;;;;5022922;28;20137;-76
2023/02/11 07:13:40;;;;;;;63.80;32.20;;;;;;;;;;5041099;28;20025;-78
2023/02/11 07:16:08;;;;;;;58.83;31.33;;;;;;;;;;5041959;28;20030;-78
2023/02/11 07:18:34;;;;;;;61.30;31.53;;;;;;;;;;5039948;28;20029;-78
2023/02/11 07:21:04;;;;;;;56.17;30.33;;;;;;;;;;5040005;28;20029;-77
2023/02/11 07:23:30;;;;;;;60.53;32.43;;;;;;;;;;5022483;28;20466;-78
2023/02/11 07:25:56;;;;;;;58.43;30.50;;;;;;;;;;5024863;28;20029;-77
2023/02/11 07:28:22;;;;;;;59.97;30.53;;;;;;;;;;5043748;28;20116;-78
2023/02/11 07:30:48;;;;;;;57.77;33.33;;;;;;;;;;5041287;28;20660;-78
2023/02/11 07:33:14;;;;;;;59.27;32.17;;;;;;;;;;5046752;28;20120;-77
2023/02/11 07:35:40;;;;;;;63.17;32.50;;;;;;;;;;5043567;28;20112;-78
2023/02/11 07:38:06;;;;;;;62.60;32.97;;;;;;;;;;5044582;28;20726;-78
2023/02/11 07:40:32;;;;;;;71.33;34.37;;;;;;;;;;5029511;28;20025;-77
2023/02/11 07:43:02;;;;;;;70.30;32.93;;;;;;;;;;5027384;28;20446;-78
2023/02/11 07:45:30;;;;;;;66.77;34.70;;;;;;;;;;5027284;28;20029;-78
2023/02/11 07:47:56;;;;;;;67.40;33.97;;;;;;;;;;5042455;28;20049;-77
2023/02/11 07:50:22;;;;;;;60.73;33.50;;;;;;;;;;5027086;28;20377;-77
2023/02/11 07:52:48;;;;;;;60.80;33.63;;;;;;;;;;5042401;28;20125;-78
2023/02/11 07:55:14;;;;;;;60.93;33.63;;;;;;;;;;5046614;28;20025;-78
2023/02/11 07:57:40;;;;;;;62.73;32.83;;;;;;;;;;5030290;28;20469;-78
2023/02/11 08:00:09;;;;;;;72.83;35.90;;;;;;;;;;5027842;28;20029;-77
2023/02/11 08:02:35;;;;;;;64.63;34.33;;;;;;;;;;5043667;28;20048;-76
2023/02/11 08:05:01;;;;;;;66.97;33.77;;;;;;;;;;5042718;28;20068;-78
2023/02/11 08:07:28;;;;;;;65.53;34.87;;;;;;;;;;5045056;28;20040;-77
2023/02/11 08:09:54;;;;;;;70.47;34.83;;;;;;;;;;5042670;28;20025;-78
2023/02/11 08:12:20;;;;;;;68.87;35.73;;;;;;;;;;5029174;28;20041;-78
2023/02/11 08:14:46;;;;;;;75.10;37.23;;;;;;;;;;5043981;28;20079;-78
2023/02/11 08:17:12;;;;;;;67.53;34.30;;;;;;;;;;5027085;28;20037;-78
2023/02/11 08:19:40;;;;;;;70.57;34.13;;;;;;;;;;5027717;28;20128;-77
2023/02/11 08:22:06;;;;;;;65.33;35.67;;;;;;;;;;5027539;28;20022;-77
2023/02/11 08:24:32;;;;;;;72.53;34.33;;;;;;;;;;5044634;28;20025;-77
2023/02/11 08:27:01;;;;;;;70.70;36.10;;;;;;;;;;5045535;28;20025;-78
2023/02/11 08:29:26;;;;;;;75.53;34.90;;;;;;;;;;5046404;28;20037;-78
2023/02/11 08:31:52;;;;;;;71.77;35.20;;;;;;;;;;5042527;28;20025;-78
2023/02/11 08:34:18;;;;;;;73.10;34.50;;;;;;;;;;5027823;28;20057;-77
2023/02/11 08:36:45;;;;;;;71.83;34.77;;;;;;;;;;5047026;28;20128;-78
2023/02/11 08:39:16;;;;;;;71.47;35.43;;;;;;;;;;5027323;28;20029;-78
2023/02/11 08:41:42;;;;;;;66.93;32.57;;;;;;;;;;5042897;28;20108;-78
2023/02/11 08:44:08;;;;;;;70.57;35.17;;;;;;;;;;5035283;28;20074;-78
2023/02/11 08:46:34;;;;;;;70.90;33.63;;;;;;;;;;5046856;28;20026;-78
2023/02/11 08:49:00;;;;;;;68.33;33.80;;;;;;;;;;5036315;28;20037;-78
2023/02/11 08:51:27;;;;;;;68.60;34.30;;;;;;;;;;5050991;28;20662;-78
2023/02/11 08:53:54;;;;;;;70.63;35.23;;;;;;;;;;5034878;28;20362;-78
2023/02/11 08:56:22;;;;;;;61.97;32.43;;;;;;;;;;5036222;28;20033;-79
2023/02/11 08:58:48;;;;;;;73.73;35.43;;;;;;;;;;5036649;28;20044;-77
2023/02/11 09:01:18;;;;;;;72.07;33.73;;;;;;;;;;5036622;28;20025;-78
2023/02/11 09:03:44;;;;;;;66.30;34.43;;;;;;;;;;5036758;28;20113;-78
2023/02/11 09:06:11;;;;;;;66.43;31.90;;;;;;;;;;5036001;28;20059;-79
2023/02/11 09:08:38;;;;;;;63.43;32.77;;;;;;;;;;5024562;28;20048;-79
2023/02/11 09:11:04;;;;;;;71.40;34.43;;;;;;;;;;5072569;28;20041;-78
2023/02/11 09:13:31;;;;;;;69.47;31.63;;;;;;;;;;5040722;28;20025;-78
2023/02/11 09:15:57;;;;;;;68.47;33.57;;;;;;;;;;5053911;28;20793;-78
2023/02/11 09:18:23;;;;;;;71.03;33.53;;;;;;;;;;5046085;28;20025;-78
2023/02/11 09:20:49;;;;;;;60.00;30.53;;;;;;;;;;5051055;28;20082;-78
2023/02/11 09:23:15;;;;;;;70.90;33.80;;;;;;;;;;5045527;28;20120;-78
2023/02/11 09:25:42;;;;;;;63.37;32.23;;;;;;;;;;5025657;28;20021;-77
2023/02/11 09:28:08;;;;;;;58.60;29.80;;;;;;;;;;5040668;28;20029;-78
2023/02/11 09:30:36;;;;;;;63.73;31.63;;;;;;;;;;5035474;28;20055;-79
2023/02/11 09:33:02;;;;;;;59.47;30.57;;;;;;;;;;5035568;28;20029;-76
2023/02/11 09:35:28;;;;;;;57.43;31.20;;;;;;;;;;5036794;28;20087;-79
2023/02/11 09:37:54;;;;;;;59.17;31.43;;;;;;;;;;5036174;28;20083;-77
2023/02/11 09:40:25;;;;;;;50.27;28.83;;;;;;;;;;5051861;28;20029;-78
2023/02/11 09:43:03;;;;;;;52.43;27.93;;;;;;;;;;5035402;28;20025;-78
2023/02/11 09:45:30;;;;;;;55.03;29.50;;;;;;;;;;5035107;28;20044;-79
2023/02/11 09:47:58;;;;;;;58.47;32.13;;;;;;;;;;5035071;28;20029;-79
2023/02/11 09:50:30;;;;;;;58.33;31.17;;;;;;;;;;5066996;28;20083;-78
2023/02/11 09:52:59;;;;;;;49.97;30.08;;;;;;;;;;5035229;28;20021;-78
2023/02/11 09:55:42;;;;;;;56.00;30.87;;;;;;;;;;5034990;28;20036;-80
2023/02/11 09:58:07;;;;;;;;;;;;;;;;;;5052241;28;20057;-79
2023/02/11 10:00:39;;;;;;;54.00;28.70;;;;;;;;;;5052452;28;19916;-80
2023/02/11 10:03:11;;;;;;;54.20;29.40;;;;;;;;;;5038942;28;20064;-79
2023/02/11 10:05:56;;;;;;;57.65;29.23;;;;;;;;;;5045816;28;20022;-80
2023/02/11 10:08:22;;;;;;;58.87;29.83;;;;;;;;;;5052071;28;20033;-79
2023/02/11 10:11:10;;;;;;;51.93;29.23;;;;;;;;;;5050629;28;20144;-79
2023/02/11 10:13:54;;;;;;;55.53;29.53;;;;;;;;;;5036730;28;20029;-77
2023/02/11 10:16:20;;;;;;;55.70;28.43;;;;;;;;;;5031347;28;20047;-79
2023/02/11 10:18:54;;;;;;;49.50;27.57;;;;;;;;;;5027687;28;20037;-77
2023/02/11 10:21:45;;;;;;;53.70;28.33;;;;;;;;;;5039503;28;20143;-78
2023/02/11 10:24:15;;;;;;;53.03;28.33;;;;;;;;;;5041105;28;20029;-77
2023/02/11 10:26:41;;;;;;;52.93;27.03;;;;;;;;;;5040475;28;20026;-76
2023/02/11 10:29:24;;;;;;;49.27;27.33;;;;;;;;;;5040430;28;20310;-77
2023/02/11 10:31:51;;;;;;;55.07;28.20;;;;;;;;;;5023669;28;20103;-78
2023/02/11 10:34:17;;;;;;;48.43;27.23;;;;;;;;;;5042258;28;20053;-77
2023/02/11 10:36:44;;;;;;;51.83;28.07;;;;;;;;;;5039359;28;20033;-76
2023/02/11 10:39:16;;;;;;;52.50;28.37;;;;;;;;;;5043922;28;20060;-77
2023/02/11 10:41:47;;;;;;;54.63;28.42;;;;;;;;;;5040341;28;20091;-78
2023/02/11 10:44:36;;;;;;;49.27;27.63;;;;;;;;;;5041274;28;20418;-77
2023/02/11 10:47:23;;;;;;;55.53;26.80;;;;;;;;;;5021388;28;20039;-78
2023/02/11 10:49:49;;;;;;;48.87;27.87;;;;;;;;;;5037474;28;20492;-77
2023/02/11 10:52:23;;;;;;;49.03;28.63;;;;;;;;;;5043159;28;20037;-78
2023/02/11 10:55:07;;;;;;;53.90;28.77;;;;;;;;;;5025349;28;20347;-78
2023/02/11 10:57:38;;;;;;;48.47;28.03;;;;;;;;;;5025583;28;20034;-78
2023/02/11 11:00:19;;;;;;;48.37;28.77;;;;;;;;;;5040616;28;20037;-77
2023/02/11 11:02:51;;;;;;;46.27;27.57;;;;;;;;;;5038663;28;20033;-78
2023/02/11 11:05:19;;;;;;;46.33;27.13;;;;;;;;;;5024970;28;20033;-78
2023/02/11 11:07:59;;;;;;;51.37;27.87;;;;;;;;;;5027848;28;20063;-77
2023/02/11 11:10:34;;;;;;;52.03;29.10;;;;;;;;;;5027990;28;20052;-79
2023/02/11 11:13:00;;;;;;;49.27;27.77;;;;;;;;;;5047562;28;20375;-77
2023/02/11 11:15:28;;;;;;;48.80;28.40;;;;;;;;;;5030282;28;20041;-76
2023/02/11 11:18:13;;;;;;;54.00;27.93;;;;;;;;;;5044150;28;20454;-77
2023/02/11 11:20:41;;;;;;;56.77;29.47;;;;;;;;;;5046213;28;20033;-76
2023/02/11 11:23:11;;;;;;;46.73;27.00;;;;;;;;;;5045247;28;20603;-76
2023/02/11 11:25:39;;;;;;;47.27;27.73;;;;;;;;;;5048203;28;20112;-81
2023/02/11 11:28:05;;;;;;;53.27;29.60;;;;;;;;;;5043341;28;20039;-78
2023/02/11 11:30:33;;;;;;;53.30;28.67;;;;;;;;;;5044797;28;20087;-77
2023/02/11 11:33:00;;;;;;;53.27;29.07;;;;;;;;;;5030148;28;20034;-78
2023/02/11 11:35:35;;;;;;;53.20;28.93;;;;;;;;;;5045235;28;20626;-76
2023/02/11 11:38:04;;;;;;;49.53;27.53;;;;;;;;;;5044407;28;20191;-77
2023/02/11 11:40:34;;;;;;;51.40;28.83;;;;;;;;;;5028545;28;20014;-77
2023/02/11 11:43:07;;;;;;;53.30;29.67;;;;;;;;;;5043569;28;20037;-77
2023/02/11 11:45:33;;;;;;;49.25;27.13;;;;;;;;;;5041432;28;20049;-78
2023/02/11 11:48:13;;;;;;;55.43;29.73;;;;;;;;;;5045473;28;20029;-78
2023/02/11 11:50:41;;;;;;;53.80;28.40;;;;;;;;;;5042019;28;20116;-77
2023/02/11 11:53:18;;;;;;;49.37;27.10;;;;;;;;;;5045719;28;20032;-77
2023/02/11 11:55:44;;;;;;;52.37;28.63;;;;;;;;;;5034153;28;20021;-77
2023/02/11 11:58:14;;;;;;;56.13;30.57;;;;;;;;;;5043574;28;20033;-78
2023/02/11 12:00:59;;;;;;;54.37;29.70;;;;;;;;;;5046408;28;20124;-77
2023/02/11 12:03:31;;;;;;;54.27;28.03;;;;;;;;;;5031427;28;20112;-77
2023/02/11 12:06:12;;;;;;;54.70;30.25;;;;;;;;;;5027808;28;20029;-77
2023/02/11 12:08:47;;;;;;;55.97;29.87;;;;;;;;;;5046034;28;20026;-77
2023/02/11 12:11:13;;;;;;;55.43;30.33;;;;;;;;;;5041613;28;20034;-78
2023/02/11 12:13:55;;;;;;;54.60;30.13;;;;;;;;;;5045542;28;20366;-78
2023/02/11 12:16:27;;;;;;;51.83;29.73;;;;;;;;;;5045970;28;20033;-77
2023/02/11 12:18:53;;;;;;;52.70;28.88;;;;;;;;;;5030406;28;20088;-75
2023/02/11 12:21:24;;;;;;;55.07;28.37;;;;;;;;;;5044965;28;20393;-77
2023/02/11 12:24:02;;;;;;;51.37;28.50;;;;;;;;;;5029062;28;20036;-77
2023/02/11 12:26:48;;;;;;;55.00;30.47;;;;;;;;;;5048200;28;20057;-77
2023/02/11 12:29:14;;;;;;;52.93;29.63;;;;;;;;;;5043131;28;20034;-77
2023/02/11 12:31:42;;;;;;;53.57;28.77;;;;;;;;;;5045512;28;20040;-77
2023/02/11 12:34:26;;;;;;;54.33;31.87;;;;;;;;;;5042924;28;20029;-77
2023/02/11 12:36:57;;;;;;;51.67;29.27;;;;;;;;;;5045554;28;21749;-77
2023/02/11 12:39:45;;;;;;;53.43;29.23;;;;;;;;;;5030523;28;20045;-78
2023/02/11 12:45:21;;;;;;;61.40;30.73;;;;;;;;;;5038754;28;20060;-78
2023/02/11 12:48:05;;;;;;;55.47;29.90;;;;;;;;;;5032828;28;20073;-78
2023/02/11 12:50:55;;;;;;;52.57;29.40;;;;;;;;;;5026759;28;20091;-76
2023/02/11 12:53:40;;;;;;;53.97;29.67;;;;;;;;;;5046168;28;20036;-78
2023/02/11 12:56:32;;;;;;;55.70;30.50;;;;;;;;;;5028055;28;20037;-74
2023/02/11 12:59:00;;;;;;;57.43;31.27;;;;;;;;;;5025898;28;20819;-76
2023/02/11 13:01:30;;;;;;;55.73;31.07;;;;;;;;;;5044695;28;20033;-77
2023/02/11 13:03:59;;;;;;;54.27;31.20;;;;;;;;;;5043618;28;20025;-77
2023/02/11 13:06:29;;;;;;;55.97;30.27;;;;;;;;;;5041663;28;20488;-77
2023/02/11 13:08:58;;;;;;;61.03;33.20;;;;;;;;;;5042755;28;20033;-78
2023/02/11 13:11:26;;;;;;;58.20;33.07;;;;;;;;;;5026737;28;20033;-78
2023/02/11 13:13:59;;;;;;;62.13;32.50;;;;;;;;;;5041396;28;20037;-77
2023/02/11 13:16:48;;;;;;;57.33;33.55;;;;;;;;;;5044292;28;20026;-77
2023/02/11 13:19:26;;;;;;;57.77;32.37;;;;;;;;;;5028532;28;20033;-78
2023/02/11 13:22:02;;;;;;;61.33;32.30;;;;;;;;;;5041426;28;20026;-76
2023/02/11 13:24:49;;;;;;;61.20;33.27;;;;;;;;;;5044916;28;20034;-76
2023/02/11 13:27:34;;;;;;;64.63;34.23;;;;;;;;;;5044610;28;20407;-76
2023/02/11 13:30:11;;;;;;;64.00;34.33;;;;;;;;;;5043098;28;20055;-76
2023/02/11 13:33:10;;;;;;;70.00;33.67;;;;;;;;;;5045881;28;20036;-79
2023/02/11 13:35:44;;;;;;;62.90;33.70;;;;;;;;;;5037362;28;20112;-78
2023/02/11 13:38:23;;;;;;;59.97;32.07;;;;;;;;;;5043752;28;20738;-77
2023/02/11 13:41:08;;;;;;;65.47;32.00;;;;;;;;;;5040855;28;20354;-77
2023/02/11 13:43:38;;;;;;;62.00;34.17;;;;;;;;;;5043237;28;20430;-76
2023/02/11 13:46:04;;;;;;;60.53;32.93;;;;;;;;;;5042238;28;20033;-77
2023/02/11 13:48:37;;;;;;;58.47;31.23;;;;;;;;;;5042000;28;20034;-78
2023/02/11 13:51:08;;;;;;;60.37;32.90;;;;;;;;;;5042512;28;20032;-78
2023/02/11 13:53:45;;;;;;;61.97;32.97;;;;;;;;;;5039512;28;20041;-78
2023/02/11 13:56:23;;;;;;;59.47;32.13;;;;;;;;;;5027091;28;20025;-78
2023/02/11 13:58:50;;;;;;;61.50;32.63;;;;;;;;;;5041026;28;20025;-78
2023/02/11 14:01:34;;;;;;;58.70;33.57;;;;;;;;;;5042774;28;21728;-78
2023/02/11 14:10:29;;;;;;;59.43;32.90;;;;;;;;;;5024953;28;20040;-77
2023/02/11 14:13:06;;;;;;;59.33;33.50;;;;;;;;;;5027234;28;20041;-79
2023/02/11 14:15:38;;;;;;;62.27;34.27;;;;;;;;;;5039953;28;20534;-79
2023/02/11 14:18:24;;;;;;;64.88;33.83;;;;;;;;;;5043589;28;20116;-78
2023/02/11 14:20:50;;;;;;;60.00;32.03;;;;;;;;;;5026269;28;20026;-78
2023/02/11 14:23:26;;;;;;;66.13;33.80;;;;;;;;;;5025093;28;20112;-78
2023/02/11 14:26:00;;;;;;;62.47;33.93;;;;;;;;;;5042658;28;20048;-77
2023/02/11 14:28:33;;;;;;;61.93;31.90;;;;;;;;;;5025746;28;20351;-77
2023/02/11 14:31:02;;;;;;;64.95;34.65;;;;;;;;;;5040160;28;20040;-79
2023/02/11 14:33:27;;;;;;;70.23;34.17;;;;;;;;;;5025652;28;20038;-77
2023/02/11 14:35:56;;;;;;;63.67;34.03;;;;;;;;;;5041592;28;20052;-77
2023/02/11 14:38:41;;;;;;;63.70;34.80;;;;;;;;;;5041629;28;20037;-78
2023/02/11 14:41:13;;;;;;;65.23;33.13;;;;;;;;;;5025694;28;20037;-77
2023/02/11 14:43:47;;;;;;;64.05;36.10;;;;;;;;;;5049043;28;20095;-78
2023/02/11 14:46:17;;;;;;;63.17;34.30;;;;;;;;;;5033928;28;20378;-77